Time;durP1;ratioP1;P1;durP2;ratioP2;P2;SDS_P1;SDS_P2;PMS_P1;PMS_P2;Temp;Humidity;BMP_temperature;BMP_pressure;BME280_temperature;BME280_humidity;BME280_pressure;Samples;Min_cycle;Max_cycle;Signal;HPM_P1;HPM_P2
2022/12/13 00:00:17;;;;;;;57.85;27.25;;;;;;;;;;6244939;23;20000;-64
2022/12/13 00:02:46;;;;;;;53.55;25.27;;;;;;;;;;6245188;23;20028;-64
2022/12/13 00:05:12;;;;;;;54.45;25.98;;;;;;;;;;6244770;23;20087;-64
2022/12/13 00:07:39;;;;;;;50.88;24.35;;;;;;;;;;6244649;23;20087;-64
2022/12/13 00:10:05;;;;;;;58.40;25.42;;;;;;;;;;6244720;23;20000;-64
2022/12/13 00:12:32;;;;;;;57.15;25.27;;;;;;;;;;6245012;23;20038;-64
2022/12/13 00:14:58;;;;;;;52.17;24.35;;;;;;;;;;6245070;23;20047;-64
2022/12/13 00:17:24;;;;;;;56.20;25.80;;;;;;;;;;6244596;22;20008;-64
2022/12/13 00:19:50;;;;;;;51.42;23.77;;;;;;;;;;6245062;23;20447;-64
2022/12/13 00:22:18;;;;;;;51.28;23.80;;;;;;;;;;6244428;22;20401;-64
2022/12/13 00:24:44;;;;;;;59.13;25.83;;;;;;;;;;6244684;22;20008;-64
2022/12/13 00:27:10;;;;;;;57.35;26.92;;;;;;;;;;6244995;22;20018;-64
2022/12/13 00:29:36;;;;;;;47.42;23.85;;;;;;;;;;6244669;23;20058;-64
2022/12/13 00:32:03;;;;;;;47.45;23.38;;;;;;;;;;6244846;23;20011;-64
2022/12/13 00:34:29;;;;;;;50.50;25.27;;;;;;;;;;6244630;23;20449;-64
2022/12/13 00:36:57;;;;;;;54.28;25.00;;;;;;;;;;6244489;23;20083;-64
2022/12/13 00:39:25;;;;;;;49.25;24.15;;;;;;;;;;6244036;22;20000;-64
2022/12/13 00:41:51;;;;;;;58.50;27.52;;;;;;;;;;6244899;23;20311;-64
2022/12/13 00:44:18;;;;;;;46.00;22.70;;;;;;;;;;6244602;23;20008;-64
2022/12/13 00:46:45;;;;;;;51.28;24.25;;;;;;;;;;6245010;22;20380;-64
2022/12/13 00:49:12;;;;;;;45.70;22.30;;;;;;;;;;6244772;23;20008;-64
2022/12/13 00:51:39;;;;;;;49.90;22.80;;;;;;;;;;6244053;23;20008;-64
2022/12/13 00:54:05;;;;;;;47.70;22.85;;;;;;;;;;6244477;23;20004;-64
2022/12/13 00:56:32;;;;;;;55.42;22.98;;;;;;;;;;6244336;23;20008;-64
2022/12/13 00:58:58;;;;;;;51.75;23.70;;;;;;;;;;6244605;23;19998;-64
2022/12/13 01:01:28;;;;;;;46.28;23.02;;;;;;;;;;6243878;23;20047;-64
2022/12/13 01:03:55;;;;;;;52.60;23.92;;;;;;;;;;6244321;23;20004;-64
2022/12/13 01:06:23;;;;;;;51.20;21.50;;;;;;;;;;6244489;23;20004;-64
2022/12/13 01:08:49;;;;;;;52.85;25.58;;;;;;;;;;6244311;23;20443;-64
2022/12/13 01:11:16;;;;;;;46.85;23.00;;;;;;;;;;6244596;23;20000;-64
2022/12/13 01:13:42;;;;;;;46.78;23.65;;;;;;;;;;6244093;23;20016;-64
2022/12/13 01:16:09;;;;;;;48.30;21.95;;;;;;;;;;6244530;23;20398;-64
2022/12/13 01:18:36;;;;;;;44.30;21.65;;;;;;;;;;6243683;22;20027;-64
2022/12/13 01:21:04;;;;;;;45.50;21.10;;;;;;;;;;6244529;23;20438;-64
2022/12/13 01:23:30;;;;;;;47.33;20.60;;;;;;;;;;6244172;23;20011;-64
2022/12/13 01:25:56;;;;;;;49.25;21.45;;;;;;;;;;6244295;23;20430;-64
2022/12/13 01:28:23;;;;;;;39.70;20.67;;;;;;;;;;6244306;23;20485;-64
2022/12/13 01:31:04;;;;;;;48.55;22.50;;;;;;;;;;6244219;23;20071;-64
2022/12/13 01:33:31;;;;;;;46.60;21.23;;;;;;;;;;6243386;23;20015;-64
2022/12/13 01:36:00;;;;;;;46.47;22.02;;;;;;;;;;6244179;23;20071;-64
2022/12/13 01:38:26;;;;;;;45.00;21.48;;;;;;;;;;6243995;22;20012;-64
2022/12/13 01:40:56;;;;;;;50.03;21.50;;;;;;;;;;6243836;23;20067;-64
2022/12/13 01:43:43;;;;;;;44.72;20.70;;;;;;;;;;6244251;22;20030;-64
2022/12/13 01:46:10;;;;;;;44.90;20.88;;;;;;;;;;6223636;23;20008;-63
2022/12/13 01:48:40;;;;;;;40.03;18.80;;;;;;;;;;6243384;23;19996;-64
2022/12/13 01:51:08;;;;;;;41.00;19.30;;;;;;;;;;6244012;23;20008;-64
2022/12/13 01:53:36;;;;;;;43.38;19.92;;;;;;;;;;6243982;22;20524;-64
2022/12/13 01:56:18;;;;;;;44.88;20.23;;;;;;;;;;6244048;23;20082;-64
2022/12/13 01:58:44;;;;;;;41.90;19.70;;;;;;;;;;6243658;23;20465;-64
2022/12/13 02:01:10;;;;;;;43.85;20.85;;;;;;;;;;6244396;23;20593;-64
2022/12/13 02:03:37;;;;;;;46.85;20.05;;;;;;;;;;6243489;23;20007;-64
2022/12/13 02:06:23;;;;;;;39.03;19.20;;;;;;;;;;6244083;23;20000;-64
2022/12/13 02:08:49;;;;;;;43.58;19.80;;;;;;;;;;6223348;23;20012;-64
2022/12/13 02:11:15;;;;;;;47.03;20.55;;;;;;;;;;6244087;23;19996;-64
2022/12/13 02:13:42;;;;;;;41.45;20.55;;;;;;;;;;6243472;23;20020;-64
2022/12/13 02:16:08;;;;;;;38.25;19.10;;;;;;;;;;6243983;23;20079;-64
2022/12/13 02:18:34;;;;;;;40.40;19.50;;;;;;;;;;6243352;23;20010;-64
2022/12/13 02:21:00;;;;;;;39.60;19.30;;;;;;;;;;6244202;23;20478;-64
2022/12/13 02:23:41;;;;;;;41.63;19.92;;;;;;;;;;6244274;23;20350;-64
2022/12/13 02:26:37;;;;;;;43.15;20.95;;;;;;;;;;6245952;23;20079;-64
2022/12/13 02:29:06;;;;;;;40.75;19.25;;;;;;;;;;6221078;22;20397;-64
2022/12/13 02:31:42;;;;;;;40.55;19.63;;;;;;;;;;6245412;23;20004;-64
2022/12/13 02:34:10;;;;;;;44.10;19.88;;;;;;;;;;6246053;23;20010;-64
2022/12/13 02:36:54;;;;;;;42.38;19.38;;;;;;;;;;6245505;23;20004;-64
2022/12/13 02:39:23;;;;;;;41.90;19.17;;;;;;;;;;6245841;23;20521;-64
2022/12/13 02:41:50;;;;;;;42.20;18.77;;;;;;;;;;6245528;23;20093;-64
2022/12/13 02:44:28;;;;;;;36.08;19.13;;;;;;;;;;6245788;23;20442;-64
2022/12/13 02:47:03;;;;;;;38.78;18.27;;;;;;;;;;6245117;23;20012;-64
2022/12/13 02:49:30;;;;;;;32.92;17.23;;;;;;;;;;6245694;23;20008;-64
2022/12/13 02:51:57;;;;;;;40.75;18.98;;;;;;;;;;6245554;23;20005;-64
2022/12/13 02:54:24;;;;;;;37.90;17.92;;;;;;;;;;6245861;23;20011;-64
2022/12/13 02:56:57;;;;;;;38.72;17.55;;;;;;;;;;6245282;23;20054;-64
2022/12/13 02:59:24;;;;;;;39.22;18.13;;;;;;;;;;6245805;23;20423;-64
2022/12/13 03:02:11;;;;;;;38.90;17.10;;;;;;;;;;6244432;23;20007;-64
2022/12/13 03:07:51;;;;;;;39.15;19.65;;;;;;;;;;6245762;22;20004;-64
2022/12/13 03:10:21;;;;;;;33.75;17.08;;;;;;;;;;6245945;23;20031;-64
2022/12/13 03:15:45;;;;;;;38.67;17.60;;;;;;;;;;6245438;23;20008;-64
2022/12/13 03:18:16;;;;;;;34.73;17.47;;;;;;;;;;6244071;23;20029;-64
2022/12/13 03:20:47;;;;;;;38.53;17.13;;;;;;;;;;6245580;22;20346;-64
2022/12/13 03:23:14;;;;;;;37.15;17.67;;;;;;;;;;6245392;23;20485;-64
2022/12/13 03:25:40;;;;;;;40.10;17.77;;;;;;;;;;6245486;23;20386;-64
2022/12/13 03:28:06;;;;;;;39.90;17.63;;;;;;;;;;6245140;23;20087;-64
2022/12/13 03:30:32;;;;;;;38.72;16.67;;;;;;;;;;6245269;23;20004;-64
2022/12/13 03:32:59;;;;;;;37.05;17.98;;;;;;;;;;6244256;23;20015;-64
2022/12/13 03:35:25;;;;;;;33.92;18.02;;;;;;;;;;6245545;23;20026;-64
2022/12/13 03:37:51;;;;;;;39.90;17.98;;;;;;;;;;6242175;23;20004;-64
2022/12/13 03:40:19;;;;;;;38.88;18.90;;;;;;;;;;6244975;23;20439;-64
2022/12/13 03:42:45;;;;;;;38.50;18.90;;;;;;;;;;6244974;23;20004;-64
2022/12/13 03:45:11;;;;;;;40.63;19.35;;;;;;;;;;6244741;22;20480;-64
2022/12/13 03:47:38;;;;;;;46.75;20.55;;;;;;;;;;6245289;23;20011;-64
2022/12/13 03:50:04;;;;;;;37.78;18.42;;;;;;;;;;6245115;22;20027;-64
2022/12/13 03:52:30;;;;;;;42.47;19.60;;;;;;;;;;6245449;23;20439;-64
2022/12/13 03:54:56;;;;;;;38.50;19.23;;;;;;;;;;6244929;23;20080;-64
2022/12/13 03:57:22;;;;;;;42.58;19.08;;;;;;;;;;6245198;22;20032;-64
2022/12/13 03:59:48;;;;;;;41.03;19.00;;;;;;;;;;6244489;23;20000;-64
2022/12/13 04:02:15;;;;;;;42.63;19.73;;;;;;;;;;6245158;23;20078;-64
2022/12/13 04:04:41;;;;;;;39.63;18.08;;;;;;;;;;6245137;23;20004;-64
2022/12/13 04:07:07;;;;;;;41.85;17.58;;;;;;;;;;6244890;23;20008;-64
2022/12/13 04:09:33;;;;;;;44.85;19.70;;;;;;;;;;6243499;23;20450;-64
2022/12/13 04:14:44;;;;;;;39.83;16.98;;;;;;;;;;6214431;23;20481;-64
2022/12/13 04:17:10;;;;;;;41.40;17.15;;;;;;;;;;6214424;23;20009;-64
2022/12/13 04:19:36;;;;;;;36.20;16.95;;;;;;;;;;6214720;23;20004;-64
2022/12/13 04:22:02;;;;;;;35.28;16.77;;;;;;;;;;6214355;23;20382;-64
2022/12/13 04:24:29;;;;;;;34.58;15.68;;;;;;;;;;6214942;23;20338;-64
2022/12/13 04:26:55;;;;;;;36.85;16.50;;;;;;;;;;6214195;23;20005;-64
2022/12/13 04:29:22;;;;;;;38.47;16.45;;;;;;;;;;6214718;23;20009;-64
2022/12/13 04:31:48;;;;;;;39.58;17.33;;;;;;;;;;6214536;23;20455;-64
2022/12/13 04:34:14;;;;;;;37.22;16.40;;;;;;;;;;6214921;23;20380;-64
2022/12/13 04:36:40;;;;;;;34.65;15.75;;;;;;;;;;6214285;23;20005;-64
2022/12/13 04:39:07;;;;;;;37.30;16.75;;;;;;;;;;6214187;23;20070;-64
2022/12/13 04:41:37;;;;;;;35.72;15.95;;;;;;;;;;6214042;23;19996;-63
2022/12/13 04:44:04;;;;;;;31.23;15.68;;;;;;;;;;6214067;23;20013;-64
2022/12/13 04:46:30;;;;;;;36.60;15.88;;;;;;;;;;6214691;23;20004;-64
2022/12/13 04:48:56;;;;;;;34.00;16.10;;;;;;;;;;6214321;23;20016;-64
2022/12/13 04:51:22;;;;;;;35.28;16.10;;;;;;;;;;6214277;23;20430;-64
2022/12/13 04:53:48;;;;;;;37.90;15.45;;;;;;;;;;6214621;23;20004;-64
2022/12/13 04:56:14;;;;;;;32.50;14.82;;;;;;;;;;6213775;23;20004;-63
2022/12/13 04:58:40;;;;;;;38.22;16.83;;;;;;;;;;6214460;23;20005;-64
2022/12/13 05:01:07;;;;;;;34.75;15.50;;;;;;;;;;6213720;23;20008;-64
2022/12/13 05:03:34;;;;;;;31.60;13.88;;;;;;;;;;6213898;23;20005;-64
2022/12/13 05:06:08;;;;;;;34.00;15.15;;;;;;;;;;6213694;23;20072;-64
2022/12/13 05:08:35;;;;;;;27.42;14.70;;;;;;;;;;6213894;23;20023;-64
2022/12/13 05:11:01;;;;;;;38.30;15.00;;;;;;;;;;6213456;23;20001;-64
2022/12/13 05:13:27;;;;;;;29.38;15.07;;;;;;;;;;6230535;23;20443;-64
2022/12/13 05:15:58;;;;;;;34.45;15.90;;;;;;;;;;6244321;22;20316;-63
2022/12/13 05:18:24;;;;;;;40.00;15.75;;;;;;;;;;6244359;23;20004;-64
2022/12/13 05:20:50;;;;;;;35.25;15.43;;;;;;;;;;6244370;23;20102;-64
2022/12/13 05:23:17;;;;;;;33.55;15.65;;;;;;;;;;6244282;23;20008;-64
2022/12/13 05:25:43;;;;;;;35.13;16.38;;;;;;;;;;6244423;23;19996;-64
2022/12/13 05:28:09;;;;;;;33.28;15.05;;;;;;;;;;6244155;23;20075;-64
2022/12/13 05:30:37;;;;;;;33.50;16.25;;;;;;;;;;6244524;23;20457;-64
2022/12/13 05:33:03;;;;;;;37.38;15.13;;;;;;;;;;6243936;23;20008;-64
2022/12/13 05:35:30;;;;;;;39.58;16.25;;;;;;;;;;6244510;23;20338;-64
2022/12/13 05:37:56;;;;;;;31.92;15.65;;;;;;;;;;6244113;23;20060;-64
2022/12/13 05:40:22;;;;;;;35.55;16.73;;;;;;;;;;6244236;23;20000;-64
2022/12/13 05:42:49;;;;;;;34.47;16.00;;;;;;;;;;6244281;23;20431;-63
2022/12/13 05:45:16;;;;;;;38.00;17.17;;;;;;;;;;6243771;23;19996;-64
2022/12/13 05:47:42;;;;;;;41.33;20.05;;;;;;;;;;6244222;23;20008;-64
2022/12/13 05:50:09;;;;;;;95.50;38.65;;;;;;;;;;6244286;23;20001;-64
2022/12/13 05:52:35;;;;;;;168.95;77.55;;;;;;;;;;6243061;23;20016;-64
2022/12/13 05:55:01;;;;;;;136.88;71.43;;;;;;;;;;6242861;23;20004;-64
2022/12/13 05:57:28;;;;;;;52.20;27.73;;;;;;;;;;6242782;23;20011;-64
2022/12/13 05:59:54;;;;;;;45.28;23.08;;;;;;;;;;6243132;23;20007;-64
2022/12/13 06:02:20;;;;;;;38.22;20.60;;;;;;;;;;6242554;23;20054;-64
2022/12/13 06:04:47;;;;;;;40.95;19.42;;;;;;;;;;6243759;23;20075;-64
2022/12/13 06:07:13;;;;;;;46.92;19.10;;;;;;;;;;6243698;23;20327;-64
2022/12/13 06:09:39;;;;;;;39.47;18.83;;;;;;;;;;6244778;22;20000;-64
2022/12/13 06:12:06;;;;;;;45.33;20.20;;;;;;;;;;6243140;23;20032;-64
2022/12/13 06:14:32;;;;;;;41.33;18.42;;;;;;;;;;6244663;23;20027;-64
2022/12/13 06:17:00;;;;;;;38.72;17.65;;;;;;;;;;6243676;22;20016;-64
2022/12/13 06:19:27;;;;;;;38.58;16.63;;;;;;;;;;6243215;23;20000;-64
2022/12/13 06:21:54;;;;;;;33.17;15.50;;;;;;;;;;6242904;23;20028;-64
2022/12/13 06:24:21;;;;;;;36.97;16.70;;;;;;;;;;6243244;23;20641;-64
2022/12/13 06:26:47;;;;;;;40.67;17.70;;;;;;;;;;6244906;23;20008;-64
2022/12/13 06:29:18;;;;;;;39.28;17.88;;;;;;;;;;6244489;23;20004;-64
2022/12/13 06:31:44;;;;;;;37.03;16.88;;;;;;;;;;6244537;23;20004;-64
2022/12/13 06:34:11;;;;;;;35.72;16.20;;;;;;;;;;6244208;22;20427;-64
2022/12/13 06:36:37;;;;;;;36.30;15.45;;;;;;;;;;6244417;23;20023;-64
2022/12/13 06:39:03;;;;;;;37.65;15.40;;;;;;;;;;6244232;23;20031;-64
2022/12/13 06:41:30;;;;;;;35.58;15.40;;;;;;;;;;6244363;23;20058;-64
2022/12/13 06:43:56;;;;;;;33.70;15.55;;;;;;;;;;6244706;23;20007;-64
2022/12/13 06:46:22;;;;;;;40.53;16.48;;;;;;;;;;6244323;23;20389;-64
2022/12/13 06:48:48;;;;;;;33.33;15.75;;;;;;;;;;6244466;23;20004;-64
2022/12/13 06:51:15;;;;;;;42.38;16.38;;;;;;;;;;6244796;22;20346;-64
2022/12/13 06:53:41;;;;;;;37.40;15.93;;;;;;;;;;6244374;23;20422;-64
2022/12/13 06:56:09;;;;;;;39.88;16.50;;;;;;;;;;6241333;23;20000;-65
2022/12/13 06:58:35;;;;;;;36.72;16.98;;;;;;;;;;6243230;23;20043;-64
2022/12/13 07:01:06;;;;;;;37.20;16.73;;;;;;;;;;6243933;23;20011;-64
2022/12/13 07:03:33;;;;;;;41.20;16.83;;;;;;;;;;6243493;23;20009;-64
2022/12/13 07:05:59;;;;;;;36.20;15.98;;;;;;;;;;6243476;23;20525;-64
2022/12/13 07:08:26;;;;;;;36.85;16.05;;;;;;;;;;6244480;23;20004;-64
2022/12/13 07:10:55;;;;;;;46.95;20.73;;;;;;;;;;6245731;23;20004;-64
2022/12/13 07:13:22;;;;;;;45.25;20.38;;;;;;;;;;6244716;23;20016;-64
2022/12/13 07:15:49;;;;;;;40.15;16.98;;;;;;;;;;6243726;23;20357;-64
2022/12/13 07:18:16;;;;;;;44.03;16.67;;;;;;;;;;6245263;22;20015;-64
2022/12/13 07:20:43;;;;;;;35.58;16.55;;;;;;;;;;6245109;23;20011;-64
2022/12/13 07:23:10;;;;;;;39.45;17.95;;;;;;;;;;6245149;23;20000;-64
2022/12/13 07:25:36;;;;;;;38.88;15.85;;;;;;;;;;6245401;23;20022;-64
2022/12/13 07:28:03;;;;;;;42.10;16.38;;;;;;;;;;6244936;22;20004;-64
2022/12/13 07:30:33;;;;;;;36.65;16.33;;;;;;;;;;6245064;23;20446;-64
2022/12/13 07:33:01;;;;;;;38.30;16.88;;;;;;;;;;6244150;23;20046;-64
2022/12/13 07:35:27;;;;;;;39.47;18.67;;;;;;;;;;6244537;22;20004;-63
2022/12/13 07:37:53;;;;;;;37.78;17.13;;;;;;;;;;6244924;23;20004;-63
2022/12/13 07:40:19;;;;;;;36.97;16.52;;;;;;;;;;6245167;23;20028;-63
2022/12/13 07:42:49;;;;;;;42.25;17.15;;;;;;;;;;6245291;23;20004;-63
2022/12/13 07:45:15;;;;;;;36.42;15.85;;;;;;;;;;6245343;23;20130;-63
2022/12/13 07:47:41;;;;;;;40.75;16.70;;;;;;;;;;6244396;23;20012;-63
2022/12/13 07:50:07;;;;;;;34.78;16.08;;;;;;;;;;6244763;23;20027;-63
2022/12/13 07:52:33;;;;;;;43.85;18.40;;;;;;;;;;6244515;23;20011;-63
2022/12/13 07:55:01;;;;;;;48.20;20.80;;;;;;;;;;6245185;23;20034;-63
2022/12/13 07:57:27;;;;;;;45.67;18.80;;;;;;;;;;6243859;22;20008;-63
2022/12/13 07:59:53;;;;;;;43.10;19.40;;;;;;;;;;6244623;23;20418;-63
2022/12/13 08:02:19;;;;;;;42.42;18.50;;;;;;;;;;6245105;23;20374;-63
2022/12/13 08:04:45;;;;;;;38.08;17.42;;;;;;;;;;6244307;23;20001;-63
2022/12/13 08:07:11;;;;;;;41.63;18.52;;;;;;;;;;6244878;23;20007;-63
2022/12/13 08:09:37;;;;;;;40.20;17.52;;;;;;;;;;6244431;23;20004;-63
2022/12/13 08:12:04;;;;;;;40.78;17.75;;;;;;;;;;6244670;23;20003;-63
2022/12/13 08:14:30;;;;;;;44.22;18.45;;;;;;;;;;6244619;22;20035;-63
2022/12/13 08:16:57;;;;;;;36.72;17.38;;;;;;;;;;6243925;23;20446;-63
2022/12/13 08:19:23;;;;;;;43.53;18.27;;;;;;;;;;6243789;23;20000;-63
2022/12/13 08:21:52;;;;;;;40.15;17.88;;;;;;;;;;6244549;23;20004;-63
2022/12/13 08:24:18;;;;;;;39.90;17.52;;;;;;;;;;6245316;23;20075;-63
2022/12/13 08:26:45;;;;;;;36.92;16.90;;;;;;;;;;6244783;23;20008;-63
2022/12/13 08:29:14;;;;;;;40.58;17.58;;;;;;;;;;6245159;23;20058;-63
2022/12/13 08:31:40;;;;;;;43.53;18.73;;;;;;;;;;6244749;23;20019;-63
2022/12/13 08:34:07;;;;;;;42.83;18.63;;;;;;;;;;6244627;23;20000;-63
2022/12/13 08:36:34;;;;;;;40.53;17.95;;;;;;;;;;6244257;22;20008;-63
2022/12/13 08:39:01;;;;;;;38.53;18.23;;;;;;;;;;6244852;23;20000;-63
2022/12/13 08:41:28;;;;;;;46.05;18.50;;;;;;;;;;6244560;23;20058;-63
2022/12/13 08:43:54;;;;;;;41.53;19.33;;;;;;;;;;6244058;23;20000;-63
2022/12/13 08:46:20;;;;;;;52.25;21.33;;;;;;;;;;6243742;23;20589;-63
2022/12/13 08:48:46;;;;;;;46.65;20.20;;;;;;;;;;6244115;23;20000;-63
2022/12/13 08:51:14;;;;;;;48.17;21.85;;;;;;;;;;6244441;23;20001;-63
2022/12/13 08:53:40;;;;;;;43.88;19.52;;;;;;;;;;6244322;22;20031;-63
2022/12/13 08:56:09;;;;;;;47.78;21.08;;;;;;;;;;6244441;23;20005;-63
2022/12/13 08:58:36;;;;;;;46.03;19.10;;;;;;;;;;6244411;22;20335;-63
2022/12/13 09:01:05;;;;;;;46.80;19.23;;;;;;;;;;6244013;22;20004;-63
2022/12/13 09:03:31;;;;;;;41.58;19.38;;;;;;;;;;6244010;22;20008;-63
2022/12/13 09:06:04;;;;;;;44.40;19.10;;;;;;;;;;6243926;23;20000;-63
2022/12/13 09:08:31;;;;;;;41.05;19.05;;;;;;;;;;6244668;23;20520;-63
2022/12/13 09:10:58;;;;;;;48.97;20.02;;;;;;;;;;6244399;23;20011;-63
2022/12/13 09:13:24;;;;;;;35.33;16.83;;;;;;;;;;6243079;23;20107;-63
2022/12/13 09:15:50;;;;;;;45.13;18.13;;;;;;;;;;6244256;23;20008;-63
2022/12/13 09:18:17;;;;;;;41.53;17.75;;;;;;;;;;6243896;23;20070;-63
2022/12/13 09:20:43;;;;;;;37.33;17.00;;;;;;;;;;6243950;23;20067;-63
2022/12/13 09:23:09;;;;;;;46.75;18.23;;;;;;;;;;6244163;23;20103;-63
2022/12/13 09:25:35;;;;;;;37.90;17.63;;;;;;;;;;6244267;23;20519;-64
2022/12/13 09:28:01;;;;;;;43.65;19.05;;;;;;;;;;6244176;23;20497;-64
2022/12/13 09:30:28;;;;;;;40.22;18.05;;;;;;;;;;6243828;23;20075;-64
2022/12/13 09:32:55;;;;;;;37.13;17.90;;;;;;;;;;6243406;23;20114;-64
2022/12/13 09:35:21;;;;;;;37.38;16.75;;;;;;;;;;6244147;23;20032;-63
2022/12/13 09:37:47;;;;;;;38.28;17.08;;;;;;;;;;6243636;22;20004;-64
2022/12/13 09:40:24;;;;;;;37.22;17.48;;;;;;;;;;6242226;23;20347;-64
2022/12/13 09:42:52;;;;;;;40.42;17.42;;;;;;;;;;6243399;23;20477;-64
2022/12/13 09:45:18;;;;;;;38.50;18.33;;;;;;;;;;6243578;23;20000;-63
2022/12/13 09:47:45;;;;;;;39.08;18.00;;;;;;;;;;6243294;23;20156;-63
2022/12/13 09:50:27;;;;;;;43.83;19.00;;;;;;;;;;6243314;23;20004;-63
2022/12/13 09:52:53;;;;;;;38.97;18.45;;;;;;;;;;6243728;23;20016;-63
2022/12/13 09:55:19;;;;;;;38.53;17.58;;;;;;;;;;6243808;23;20374;-63
2022/12/13 09:57:46;;;;;;;43.50;18.52;;;;;;;;;;6243780;23;20004;-63
2022/12/13 10:00:14;;;;;;;41.38;19.02;;;;;;;;;;6243263;23;20007;-63
2022/12/13 10:02:45;;;;;;;34.75;16.38;;;;;;;;;;6243524;22;20008;-64
2022/12/13 10:05:16;;;;;;;37.67;17.73;;;;;;;;;;6242979;23;20000;-63
2022/12/13 10:07:43;;;;;;;36.53;17.77;;;;;;;;;;6243779;23;20461;-63
2022/12/13 10:10:10;;;;;;;42.13;18.55;;;;;;;;;;6243182;22;20410;-63
2022/12/13 10:12:38;;;;;;;41.28;19.70;;;;;;;;;;6243790;23;20012;-63
2022/12/13 10:15:05;;;;;;;40.35;18.75;;;;;;;;;;6243275;23;20008;-63
2022/12/13 10:17:33;;;;;;;45.33;19.48;;;;;;;;;;6244091;23;20413;-63
2022/12/13 10:20:00;;;;;;;43.25;18.90;;;;;;;;;;6244141;23;20000;-63
2022/12/13 10:22:26;;;;;;;40.63;19.23;;;;;;;;;;6243860;22;20028;-63
2022/12/13 10:24:59;;;;;;;42.78;19.73;;;;;;;;;;6243451;23;20019;-63
2022/12/13 10:27:29;;;;;;;39.72;18.00;;;;;;;;;;6243911;22;20078;-63
2022/12/13 10:30:00;;;;;;;42.40;18.58;;;;;;;;;;6243712;23;20008;-63
2022/12/13 10:32:26;;;;;;;41.35;18.40;;;;;;;;;;6243502;23;20004;-63
2022/12/13 10:34:55;;;;;;;42.15;19.67;;;;;;;;;;6243240;23;20008;-63
2022/12/13 10:37:27;;;;;;;45.78;19.10;;;;;;;;;;6243262;23;20457;-63
2022/12/13 10:39:53;;;;;;;44.85;20.30;;;;;;;;;;6243362;22;20004;-63
2022/12/13 10:42:20;;;;;;;42.28;19.52;;;;;;;;;;6243970;23;20024;-63
2022/12/13 10:44:48;;;;;;;44.50;19.88;;;;;;;;;;6245271;23;20004;-63
2022/12/13 10:47:18;;;;;;;40.83;20.45;;;;;;;;;;6244686;22;20000;-63
2022/12/13 10:49:50;;;;;;;42.25;18.45;;;;;;;;;;6244148;23;20015;-63
2022/12/13 10:52:39;;;;;;;41.15;19.58;;;;;;;;;;6242654;22;20346;-63
2022/12/13 10:55:07;;;;;;;40.33;19.65;;;;;;;;;;6244533;23;20040;-63
2022/12/13 10:57:33;;;;;;;40.38;19.10;;;;;;;;;;6244650;23;20026;-63
2022/12/13 10:59:59;;;;;;;44.17;19.83;;;;;;;;;;6244406;23;20075;-63
2022/12/13 11:02:38;;;;;;;45.80;19.95;;;;;;;;;;6244860;23;20000;-63
2022/12/13 11:05:23;;;;;;;50.70;20.70;;;;;;;;;;6244627;23;20036;-63
2022/12/13 11:07:49;;;;;;;44.55;19.73;;;;;;;;;;6245213;23;20011;-63
2022/12/13 11:10:18;;;;;;;40.60;19.42;;;;;;;;;;6244628;23;20639;-63
2022/12/13 11:12:44;;;;;;;42.85;19.08;;;;;;;;;;6244733;23;20016;-63
2022/12/13 11:15:17;;;;;;;51.92;20.38;;;;;;;;;;6244289;23;20400;-63
2022/12/13 11:17:47;;;;;;;43.80;20.17;;;;;;;;;;6245034;22;20003;-63
2022/12/13 11:20:21;;;;;;;43.15;19.35;;;;;;;;;;6244645;23;20004;-63
2022/12/13 11:22:48;;;;;;;44.58;19.75;;;;;;;;;;6245041;23;20004;-63
2022/12/13 11:25:20;;;;;;;54.97;23.90;;;;;;;;;;6243427;23;20000;-63
2022/12/13 11:27:53;;;;;;;53.28;20.80;;;;;;;;;;6244533;23;20514;-63
2022/12/13 11:30:37;;;;;;;44.00;20.67;;;;;;;;;;6244471;23;20004;-63
2022/12/13 11:33:13;;;;;;;45.17;20.63;;;;;;;;;;6244993;23;20039;-63
2022/12/13 11:36:02;;;;;;;49.17;21.95;;;;;;;;;;6245161;23;20004;-63
2022/12/13 11:38:47;;;;;;;43.47;19.90;;;;;;;;;;6245643;22;20343;-63
2022/12/13 11:41:23;;;;;;;48.75;21.52;;;;;;;;;;6244102;22;20356;-64
2022/12/13 11:43:55;;;;;;;48.25;21.33;;;;;;;;;;6244891;23;20012;-64
2022/12/13 11:46:28;;;;;;;44.75;21.63;;;;;;;;;;6243197;23;20070;-63
2022/12/13 11:48:57;;;;;;;44.85;20.92;;;;;;;;;;6245358;23;20107;-64
2022/12/13 11:51:44;;;;;;;45.25;21.98;;;;;;;;;;6244954;22;20023;-63
2022/12/13 11:54:14;;;;;;;47.38;21.17;;;;;;;;;;6244323;23;20004;-63
2022/12/13 11:56:42;;;;;;;44.35;20.20;;;;;;;;;;6247422;23;20493;-63
2022/12/13 11:59:08;;;;;;;49.70;21.25;;;;;;;;;;6244718;23;20062;-63
2022/12/13 12:01:40;;;;;;;47.90;21.23;;;;;;;;;;6243813;23;20073;-63
2022/12/13 12:04:06;;;;;;;46.40;23.03;;;;;;;;;;6243899;23;20057;-63
2022/12/13 12:06:38;;;;;;;47.55;21.88;;;;;;;;;;6243265;22;20211;-63
2022/12/13 12:09:12;;;;;;;45.83;20.70;;;;;;;;;;6244137;22;20442;-63
2022/12/13 12:11:45;;;;;;;47.70;21.83;;;;;;;;;;6243582;23;20000;-64
2022/12/13 12:14:14;;;;;;;44.08;20.88;;;;;;;;;;6243725;22;20361;-64
2022/12/13 12:16:48;;;;;;;49.03;20.85;;;;;;;;;;6243284;23;20443;-64
2022/12/13 12:19:15;;;;;;;47.45;21.17;;;;;;;;;;6243443;23;20051;-64
2022/12/13 12:21:53;;;;;;;50.20;20.88;;;;;;;;;;6242710;22;20012;-64
2022/12/13 12:24:30;;;;;;;56.80;23.10;;;;;;;;;;6243723;23;20442;-64
2022/12/13 12:27:05;;;;;;;46.83;22.73;;;;;;;;;;6244108;23;20088;-65
2022/12/13 12:29:32;;;;;;;49.53;22.05;;;;;;;;;;6243751;23;20354;-63
2022/12/13 12:31:58;;;;;;;50.90;21.25;;;;;;;;;;6243405;23;20061;-63
2022/12/13 12:34:27;;;;;;;51.28;22.42;;;;;;;;;;6244088;23;20015;-63
2022/12/13 12:36:53;;;;;;;44.78;21.88;;;;;;;;;;6244415;23;20008;-63
2022/12/13 12:39:38;;;;;;;54.70;23.58;;;;;;;;;;6244913;23;20464;-63
2022/12/13 12:42:04;;;;;;;47.13;21.75;;;;;;;;;;6244440;22;20004;-63
2022/12/13 12:44:32;;;;;;;53.38;22.98;;;;;;;;;;6244716;23;20045;-63
2022/12/13 12:47:01;;;;;;;42.17;19.70;;;;;;;;;;6244899;22;20450;-63
2022/12/13 12:49:50;;;;;;;47.42;20.98;;;;;;;;;;6244488;23;20007;-63
2022/12/13 12:52:27;;;;;;;46.58;22.15;;;;;;;;;;6245039;23;20054;-63
2022/12/13 12:55:10;;;;;;;42.22;20.65;;;;;;;;;;6244119;23;20016;-63
2022/12/13 12:57:38;;;;;;;42.03;19.20;;;;;;;;;;6244461;23;20008;-63
2022/12/13 13:00:10;;;;;;;49.45;21.90;;;;;;;;;;6244736;22;20000;-63
2022/12/13 13:03:09;;;;;;;48.53;22.50;;;;;;;;;;6244709;22;20004;-63
2022/12/13 13:05:39;;;;;;;41.00;20.20;;;;;;;;;;6121830;23;20006;-63
2022/12/13 13:08:23;;;;;;;48.22;21.85;;;;;;;;;;6122641;23;20398;-63
2022/12/13 13:10:50;;;;;;;43.00;21.23;;;;;;;;;;6121775;23;20009;-63
2022/12/13 13:13:45;;;;;;;52.50;22.42;;;;;;;;;;6122440;23;20022;-63
2022/12/13 13:16:26;;;;;;;49.15;21.70;;;;;;;;;;6122322;23;20014;-63
2022/12/13 13:19:02;;;;;;;46.38;21.27;;;;;;;;;;6121950;23;20081;-63
2022/12/13 13:21:33;;;;;;;44.90;19.77;;;;;;;;;;6122289;23;20006;-63
2022/12/13 13:24:08;;;;;;;51.25;22.15;;;;;;;;;;6121884;23;20016;-63
2022/12/13 13:26:48;;;;;;;48.78;21.85;;;;;;;;;;6122092;23;20010;-63
2022/12/13 13:29:23;;;;;;;51.72;22.92;;;;;;;;;;6122388;23;20084;-63
2022/12/13 13:31:54;;;;;;;67.18;30.35;;;;;;;;;;6121936;23;20010;-63
2022/12/13 13:34:22;;;;;;;45.72;22.23;;;;;;;;;;6122475;23;20020;-63
2022/12/13 13:36:51;;;;;;;59.25;26.92;;;;;;;;;;6121751;23;20010;-63
2022/12/13 13:39:37;;;;;;;47.50;24.35;;;;;;;;;;6121807;23;20010;-63
2022/12/13 13:42:38;;;;;;;50.40;24.10;;;;;;;;;;6228078;23;20043;-63
2022/12/13 13:45:16;;;;;;;48.50;22.23;;;;;;;;;;6122240;23;20045;-63
2022/12/13 13:47:44;;;;;;;44.70;22.20;;;;;;;;;;6121871;23;20025;-63
2022/12/13 13:50:10;;;;;;;45.35;22.50;;;;;;;;;;6122330;23;20014;-63
2022/12/13 13:52:54;;;;;;;51.22;24.80;;;;;;;;;;6121631;23;20452;-63
2022/12/13 13:55:29;;;;;;;46.17;22.98;;;;;;;;;;6122045;23;20356;-63
2022/12/13 13:58:15;;;;;;;50.22;22.65;;;;;;;;;;6121778;23;20014;-63
2022/12/13 14:00:44;;;;;;;48.28;21.80;;;;;;;;;;6121790;23;20006;-63
2022/12/13 14:03:10;;;;;;;48.08;22.52;;;;;;;;;;6122428;23;20075;-63
2022/12/13 14:05:52;;;;;;;43.63;21.52;;;;;;;;;;6121754;23;20009;-63
2022/12/13 14:08:25;;;;;;;46.28;22.17;;;;;;;;;;6121779;23;20487;-63
2022/12/13 14:11:02;;;;;;;47.25;21.90;;;;;;;;;;6121781;23;20333;-63
2022/12/13 14:13:44;;;;;;;49.90;22.45;;;;;;;;;;6121671;23;20022;-63
2022/12/13 14:16:19;;;;;;;51.13;23.08;;;;;;;;;;6122020;23;20022;-63
2022/12/13 14:18:45;;;;;;;51.88;22.88;;;;;;;;;;6170099;23;20040;-63
2022/12/13 14:21:14;;;;;;;46.03;22.77;;;;;;;;;;6246246;23;20050;-63
2022/12/13 14:23:45;;;;;;;49.45;22.88;;;;;;;;;;6245645;23;20004;-63
2022/12/13 14:26:30;;;;;;;42.75;21.13;;;;;;;;;;6246127;23;20028;-63
2022/12/13 14:28:57;;;;;;;50.10;23.20;;;;;;;;;;6245906;23;20008;-63
2022/12/13 14:31:25;;;;;;;44.72;22.25;;;;;;;;;;6246131;22;20316;-63
2022/12/13 14:33:52;;;;;;;51.60;23.10;;;;;;;;;;6245958;23;20035;-63
2022/12/13 14:36:26;;;;;;;44.38;21.80;;;;;;;;;;6245882;23;20147;-63